»·PEaware :: N112VV KMSO-KHLN

N112VV :: KMSO-KHLN

FLIGHT INFORMATION

Flight Status: Arrived
Operator: Privately registered:
United States
More flights under this callsign
Pilot: Anonymous 27337 (27337)
Aircraft: Unknown
(N102)
More flights by this aircraft type
Origin: KMSO Missoula Intl
United States
Destination: KHLN Helena Regl
United States
More flights between these airports :: More routes between these airports
Route: GRZLY3 MSO T268 HLN
File this flight plan on PilotEdge
Remarks:
Altitude:
(Current/Filed)
10,000ft
Speed:
(Current/Filed)
170kts
Departed: 02-Oct-21 01:23 PM
Arrived: 02-Oct-21 02:18 PM
Distance/Time
Traveled:
89nm/0:55
Distance/Time
To Go:
Arrived

Flight Plot

Page will automatically refresh every two minutes.

Flight plan parsing failed; only flown route is shown


Map Options




Map Legend


Flown Route
Filed Route
Departure Airport
Arrival Airport
Navaid (VOR, NDB)
Fix

Horizontal Profiles

Position Reports

Time Latitude Longitude Heading Altitude Ground
Speed
02-Oct-21 13:05 46.914797 -114.080640 269 3200ft 0kts
02-Oct-21 13:06 46.914797 -114.080640 269 3200ft 0kts
02-Oct-21 13:07 46.914797 -114.080640 269 3200ft 0kts
02-Oct-21 13:08 46.914797 -114.080640 269 3200ft 0kts
02-Oct-21 13:09 46.914890 -114.081065 167 3201ft 1kts
02-Oct-21 13:09 46.914877 -114.081064 196 3201ft 0kts
02-Oct-21 13:11 46.914877 -114.081064 196 3201ft 0kts
02-Oct-21 13:12 46.914868 -114.081058 150 3201ft 1kts
02-Oct-21 13:13 46.912971 -114.082692 303 3199ft 11kts
02-Oct-21 13:13 46.913091 -114.082863 315 3199ft 4kts
02-Oct-21 13:14 46.916574 -114.088709 312 3199ft 14kts
02-Oct-21 13:16 46.919515 -114.093732 311 3196ft 15kts
02-Oct-21 13:17 46.922362 -114.098654 310 3189ft 15kts
02-Oct-21 13:17 46.924462 -114.102237 311 3191ft 12kts
02-Oct-21 13:18 46.925705 -114.105293 232 3196ft 4kts
02-Oct-21 13:19 46.925558 -114.105521 215 3196ft 0kts
02-Oct-21 13:20 46.925558 -114.105521 215 3196ft 0kts
02-Oct-21 13:21 46.924056 -114.105352 128 3194ft 20kts
02-Oct-21 13:22 46.905572 -114.074894 149 3955ft 126kts
02-Oct-21 13:23 46.872684 -114.076396 178 5246ft 126kts
02-Oct-21 13:24 46.837936 -114.069330 172 6327ft 132kts
02-Oct-21 13:25 46.802229 -114.061660 172 7347ft 130kts
02-Oct-21 13:26 46.772019 -114.037401 98 8133ft 142kts
02-Oct-21 13:27 46.797129 -114.012992 326 8748ft 138kts
02-Oct-21 13:28 46.827087 -114.043227 320 9584ft 132kts
02-Oct-21 13:29 46.860123 -114.071129 327 9914ft 151kts
02-Oct-21 13:30 46.900289 -114.072537 29 10151ft 161kts
02-Oct-21 13:31 46.916067 -114.014251 113 9977ft 173kts
02-Oct-21 13:32 46.890619 -113.953609 123 9990ft 165kts
02-Oct-21 13:33 46.876214 -113.887552 96 9957ft 169kts
02-Oct-21 13:34 46.872678 -113.817973 92 9976ft 170kts
02-Oct-21 13:35 46.861745 -113.751247 107 10094ft 167kts
02-Oct-21 13:36 46.850528 -113.683003 95 9966ft 171kts
02-Oct-21 13:37 46.844738 -113.613920 99 10008ft 169kts
02-Oct-21 13:38 46.834835 -113.546316 102 10037ft 169kts
02-Oct-21 13:39 46.825511 -113.478122 100 10036ft 171kts
02-Oct-21 13:40 46.816040 -113.409832 100 10034ft 171kts
02-Oct-21 13:41 46.806515 -113.341505 101 10032ft 171kts
02-Oct-21 13:42 46.796980 -113.273371 101 10036ft 171kts
02-Oct-21 13:43 46.787320 -113.205002 101 10035ft 171kts
02-Oct-21 13:44 46.777652 -113.136922 101 10033ft 171kts
02-Oct-21 13:45 46.767936 -113.068873 101 10038ft 171kts
02-Oct-21 13:46 46.758171 -113.000763 101 10034ft 171kts
02-Oct-21 13:47 46.748349 -112.932637 101 10034ft 171kts
02-Oct-21 13:48 46.738518 -112.864733 101 10035ft 171kts
02-Oct-21 13:49 46.728646 -112.796666 101 10037ft 171kts
02-Oct-21 13:50 46.718694 -112.728629 101 10033ft 171kts
02-Oct-21 13:51 46.708632 -112.660566 101 10034ft 171kts
02-Oct-21 13:52 46.706304 -112.644820 101 10039ft 171kts
02-Oct-21 13:53 46.704001 -112.629262 101 10034ft 171kts
02-Oct-21 13:54 46.695927 -112.574519 101 10032ft 171kts
02-Oct-21 13:55 46.685809 -112.506162 101 10032ft 171kts
02-Oct-21 13:56 46.675692 -112.438181 101 10036ft 171kts
02-Oct-21 13:57 46.665529 -112.370116 101 10033ft 171kts
02-Oct-21 13:58 46.655314 -112.302131 101 10038ft 171kts
02-Oct-21 13:59 46.645077 -112.234165 102 10035ft 171kts
02-Oct-21 14:00 46.634832 -112.166501 102 10034ft 171kts
02-Oct-21 14:01 46.624500 -112.098460 102 10034ft 171kts
02-Oct-21 14:02 46.614470 -112.033004 101 10032ft 154kts
02-Oct-21 14:03 46.605599 -111.974727 101 10036ft 143kts
02-Oct-21 14:04 46.597582 -111.918482 100 10038ft 141kts
02-Oct-21 14:05 46.587291 -111.862467 104 10035ft 144kts
02-Oct-21 14:06 46.577210 -111.805665 103 10035ft 145kts
02-Oct-21 14:07 46.569973 -111.748331 89 10018ft 138kts
02-Oct-21 14:08 46.569863 -111.687591 92 9084ft 161kts
02-Oct-21 14:09 46.554486 -111.642531 207 8109ft 157kts
02-Oct-21 14:10 46.561163 -111.695812 292 7770ft 160kts
02-Oct-21 14:11 46.570252 -111.761922 280 6603ft 156kts
02-Oct-21 14:12 46.579303 -111.814602 283 5897ft 105kts
02-Oct-21 14:13 46.585468 -111.852821 280 5417ft 107kts
02-Oct-21 14:14 46.593049 -111.896764 285 4773ft 108kts
02-Oct-21 14:15 46.599250 -111.939945 280 4206ft 106kts
02-Oct-21 14:16 46.603992 -111.969329 282 3845ft 54kts
02-Oct-21 14:17 46.605296 -111.980662 183 3853ft 10kts
02-Oct-21 14:18 46.603348 -111.983104 246 3858ft 9kts
02-Oct-21 14:19 46.603355 -111.983189 20 3858ft 0kts

Navigation Log

Ident Type
Flight plan parsing failed, navigation log unavailable